Time;durP1;ratioP1;P1;durP2;ratioP2;P2;SDS_P1;SDS_P2;PMS_P1;PMS_P2;Temp;Humidity;BMP_temperature;BMP_pressure;BME280_temperature;BME280_humidity;BME280_pressure;Samples;Min_cycle;Max_cycle;Signal;HPM_P1;HPM_P2
2022/01/20 00:03:35;;;;;;;70.40;14.32;;;;;;;;;;5035675;28;20052;-85
2022/01/20 00:09:17;;;;;;;62.65;14.18;;;;;;;;;;5049559;28;20033;-85
2022/01/20 00:28:17;;;;;;;58.47;8.57;;;;;;;;;;5049726;28;20069;-85
2022/01/20 00:31:03;;;;;;;49.30;8.63;;;;;;;;;;5043732;28;20045;-82
2022/01/20 00:38:44;;;;;;;43.63;8.43;;;;;;;;;;5025764;28;20073;-83
2022/01/20 00:41:15;;;;;;;48.80;9.05;;;;;;;;;;5042392;28;20055;-83
2022/01/20 00:43:42;;;;;;;65.65;9.82;;;;;;;;;;5044147;28;20095;-82
2022/01/20 00:46:08;;;;;;;58.92;10.45;;;;;;;;;;5043668;28;20033;-84
2022/01/20 00:48:34;;;;;;;57.33;10.02;;;;;;;;;;5043152;28;20041;-83
2022/01/20 00:51:01;;;;;;;62.50;10.02;;;;;;;;;;5031210;28;20445;-84
2022/01/20 00:53:27;;;;;;;71.40;11.00;;;;;;;;;;5045988;28;20033;-82
2022/01/20 00:55:53;;;;;;;46.63;10.30;;;;;;;;;;5025010;28;20037;-82
2022/01/20 00:58:19;;;;;;;64.88;11.27;;;;;;;;;;5027222;28;20045;-83
2022/01/20 01:00:45;;;;;;;58.28;11.13;;;;;;;;;;5024800;28;20096;-82
2022/01/20 01:03:11;;;;;;;50.45;11.18;;;;;;;;;;5041534;28;20060;-84
2022/01/20 01:05:51;;;;;;;47.08;11.30;;;;;;;;;;5047128;28;20385;-85
2022/01/20 01:08:17;;;;;;;55.65;11.48;;;;;;;;;;5033804;28;20032;-83
2022/01/20 01:10:45;;;;;;;50.58;10.52;;;;;;;;;;5043474;28;20049;-83
2022/01/20 01:13:14;;;;;;;65.35;11.30;;;;;;;;;;5042564;28;20064;-83
2022/01/20 01:15:45;;;;;;;48.42;11.23;;;;;;;;;;5042699;28;20043;-84
2022/01/20 01:23:31;;;;;;;62.70;11.82;;;;;;;;;;5041752;28;20065;-84
2022/01/20 01:25:57;;;;;;;58.00;10.10;;;;;;;;;;5027240;28;20457;-85
2022/01/20 01:28:26;;;;;;;55.65;10.15;;;;;;;;;;5022743;28;20037;-85
2022/01/20 01:33:21;;;;;;;53.10;9.52;;;;;;;;;;5057637;28;20045;-83
2022/01/20 01:35:55;;;;;;;43.25;9.70;;;;;;;;;;5041010;28;20045;-84
2022/01/20 01:40:50;;;;;;;49.58;9.50;;;;;;;;;;5057251;28;20045;-86
2022/01/20 01:43:25;;;;;;;60.03;9.82;;;;;;;;;;5041688;28;20049;-83
2022/01/20 01:45:51;;;;;;;57.20;9.07;;;;;;;;;;5041760;28;20457;-85
2022/01/20 01:48:17;;;;;;;57.72;9.45;;;;;;;;;;5041458;28;20040;-84
2022/01/20 01:50:43;;;;;;;60.97;9.75;;;;;;;;;;5041173;28;20046;-84
2022/01/20 01:53:09;;;;;;;50.70;8.80;;;;;;;;;;5045275;28;20071;-83
2022/01/20 01:55:35;;;;;;;50.13;9.18;;;;;;;;;;5058893;28;20029;-83
2022/01/20 01:58:01;;;;;;;41.28;7.93;;;;;;;;;;5046591;28;20073;-84
2022/01/20 02:00:27;;;;;;;57.63;8.93;;;;;;;;;;5041503;28;20048;-84
2022/01/20 02:02:53;;;;;;;52.92;8.75;;;;;;;;;;5040387;28;20432;-85
2022/01/20 02:05:20;;;;;;;45.47;8.73;;;;;;;;;;5041197;28;20061;-85
2022/01/20 02:18:54;;;;;;;40.70;8.65;;;;;;;;;;5054840;28;20101;-85
2022/01/20 02:21:20;;;;;;;52.33;8.35;;;;;;;;;;5063431;28;20132;-84
2022/01/20 02:23:47;;;;;;;53.13;8.23;;;;;;;;;;5022909;28;20088;-85
2022/01/20 02:26:13;;;;;;;49.63;7.85;;;;;;;;;;5044776;28;20041;-85
2022/01/20 02:28:39;;;;;;;45.83;8.40;;;;;;;;;;5057276;28;20094;-85
2022/01/20 02:31:09;;;;;;;42.25;7.93;;;;;;;;;;5041037;28;20039;-84
2022/01/20 02:33:35;;;;;;;45.38;7.63;;;;;;;;;;5041174;28;20041;-84
2022/01/20 02:36:04;;;;;;;34.92;6.55;;;;;;;;;;5058837;28;20033;-85
2022/01/20 02:38:41;;;;;;;36.20;7.07;;;;;;;;;;5041708;28;20149;-85
2022/01/20 02:46:37;;;;;;;34.00;6.50;;;;;;;;;;5062596;28;20041;-86
2022/01/20 02:49:03;;;;;;;40.50;5.85;;;;;;;;;;5045404;28;20445;-86
2022/01/20 02:51:29;;;;;;;40.72;6.57;;;;;;;;;;5065157;28;20071;-85
2022/01/20 02:53:56;;;;;;;31.13;6.03;;;;;;;;;;5045205;28;20040;-83
2022/01/20 02:56:22;;;;;;;30.40;6.13;;;;;;;;;;5043891;28;20061;-85
2022/01/20 02:58:48;;;;;;;38.38;5.70;;;;;;;;;;5060638;28;20040;-85
2022/01/20 03:01:14;;;;;;;27.73;5.00;;;;;;;;;;5045287;28;20048;-86
2022/01/20 03:03:40;;;;;;;31.02;5.70;;;;;;;;;;5048812;28;20036;-87
2022/01/20 03:06:06;;;;;;;34.53;5.43;;;;;;;;;;5065707;28;20033;-87
2022/01/20 03:08:34;;;;;;;30.95;5.57;;;;;;;;;;5063630;28;20041;-88
2022/01/20 03:11:00;;;;;;;30.83;4.97;;;;;;;;;;5063851;28;20041;-87
2022/01/20 03:13:26;;;;;;;35.38;5.43;;;;;;;;;;5046292;28;20045;-87
2022/01/20 03:15:52;;;;;;;35.30;5.40;;;;;;;;;;5062038;28;20037;-84
2022/01/20 03:18:18;;;;;;;36.15;5.32;;;;;;;;;;5043859;28;20117;-85
2022/01/20 03:20:44;;;;;;;31.02;5.15;;;;;;;;;;5044158;28;20045;-84
2022/01/20 03:23:10;;;;;;;26.08;5.15;;;;;;;;;;5061944;28;20103;-85
2022/01/20 03:25:36;;;;;;;33.53;4.80;;;;;;;;;;5044926;28;20043;-84
2022/01/20 03:28:02;;;;;;;31.80;6.00;;;;;;;;;;5051174;28;20029;-84
2022/01/20 03:30:29;;;;;;;31.83;5.00;;;;;;;;;;5061026;28;20083;-81
2022/01/20 03:32:54;;;;;;;31.73;5.45;;;;;;;;;;5066067;28;20048;-85
2022/01/20 03:35:21;;;;;;;30.05;5.60;;;;;;;;;;5061157;28;20096;-86
2022/01/20 03:37:47;;;;;;;30.13;5.78;;;;;;;;;;5046206;28;20068;-87
2022/01/20 03:40:14;;;;;;;32.83;6.45;;;;;;;;;;5063728;28;20037;-85
2022/01/20 03:42:40;;;;;;;25.15;5.80;;;;;;;;;;5047421;28;20187;-87
2022/01/20 03:45:06;;;;;;;38.03;5.90;;;;;;;;;;5046343;28;20033;-86
2022/01/20 03:47:33;;;;;;;35.75;5.80;;;;;;;;;;5062588;28;20060;-87
2022/01/20 03:52:27;;;;;;;36.05;5.25;;;;;;;;;;5067044;28;20445;-85
2022/01/20 03:54:56;;;;;;;32.88;5.10;;;;;;;;;;5065924;28;20040;-85
2022/01/20 03:57:22;;;;;;;28.88;4.32;;;;;;;;;;5048792;28;20051;-86
2022/01/20 03:59:48;;;;;;;28.38;4.60;;;;;;;;;;5048618;28;20067;-84
2022/01/20 04:02:14;;;;;;;34.10;5.10;;;;;;;;;;5049850;28;20562;-87
2022/01/20 04:04:40;;;;;;;35.47;4.72;;;;;;;;;;5064753;28;20253;-86
2022/01/20 04:07:06;;;;;;;26.35;4.63;;;;;;;;;;5049121;28;20079;-82
2022/01/20 04:09:32;;;;;;;27.88;4.68;;;;;;;;;;5048234;28;20043;-84
2022/01/20 04:11:59;;;;;;;29.30;5.00;;;;;;;;;;5064982;28;20045;-86
2022/01/20 04:14:27;;;;;;;23.60;4.45;;;;;;;;;;5065988;28;20064;-85
2022/01/20 04:19:22;;;;;;;39.53;4.90;;;;;;;;;;5076816;28;20083;-88
2022/01/20 04:21:49;;;;;;;35.38;5.20;;;;;;;;;;5051552;28;20051;-87
2022/01/20 04:24:16;;;;;;;31.85;5.50;;;;;;;;;;5066624;28;20037;-86
2022/01/20 04:26:43;;;;;;;34.92;5.95;;;;;;;;;;5049230;28;20119;-85
2022/01/20 04:29:11;;;;;;;22.88;5.20;;;;;;;;;;5049125;28;20114;-85
2022/01/20 04:31:37;;;;;;;27.60;5.97;;;;;;;;;;5050159;28;20072;-86
2022/01/20 04:34:04;;;;;;;30.33;5.45;;;;;;;;;;5048834;28;20044;-85
2022/01/20 04:36:32;;;;;;;27.73;6.00;;;;;;;;;;5049366;28;20040;-87
2022/01/20 04:39:01;;;;;;;32.45;5.78;;;;;;;;;;5066431;28;20120;-88
2022/01/20 04:41:29;;;;;;;34.85;7.18;;;;;;;;;;5049816;28;20345;-86
2022/01/20 04:43:56;;;;;;;35.30;7.22;;;;;;;;;;5050774;28;20053;-85
2022/01/20 04:46:35;;;;;;;28.27;6.25;;;;;;;;;;5048792;28;20056;-86
2022/01/20 04:57:27;;;;;;;26.85;7.43;;;;;;;;;;5064992;28;20075;-84
2022/01/20 04:59:46;;;;;;;29.50;7.63;;;;;;;;;;5061474;28;20063;-83
2022/01/20 05:02:12;;;;;;;26.85;7.28;;;;;;;;;;5050994;28;20044;-85
2022/01/20 05:04:39;;;;;;;22.48;7.80;;;;;;;;;;5063470;28;20025;-85
2022/01/20 05:07:06;;;;;;;32.03;8.20;;;;;;;;;;5070023;28;20441;-83
2022/01/20 05:09:32;;;;;;;36.55;8.75;;;;;;;;;;5062765;28;20091;-84
2022/01/20 05:12:11;;;;;;;36.97;9.35;;;;;;;;;;5045250;28;20041;-84
2022/01/20 05:14:37;;;;;;;40.72;9.88;;;;;;;;;;5061461;28;20055;-84
2022/01/20 05:17:03;;;;;;;27.75;8.82;;;;;;;;;;5045909;28;20512;-85
2022/01/20 05:19:30;;;;;;;35.78;8.75;;;;;;;;;;5046869;28;20037;-84
2022/01/20 05:21:56;;;;;;;29.30;9.10;;;;;;;;;;5047276;28;20048;-83
2022/01/20 05:24:22;;;;;;;38.55;10.05;;;;;;;;;;5048473;28;20037;-80
2022/01/20 05:26:50;;;;;;;35.85;10.32;;;;;;;;;;5066672;28;20102;-81
2022/01/20 05:29:16;;;;;;;31.88;9.73;;;;;;;;;;5048650;28;20040;-81
2022/01/20 05:31:42;;;;;;;35.83;10.73;;;;;;;;;;5054000;28;20045;-82
2022/01/20 05:34:08;;;;;;;33.63;9.45;;;;;;;;;;5050913;28;20052;-83
2022/01/20 05:36:34;;;;;;;38.67;10.02;;;;;;;;;;5068704;28;20053;-85
2022/01/20 05:39:00;;;;;;;30.15;10.60;;;;;;;;;;5073824;28;20037;-81
2022/01/20 05:41:26;;;;;;;21.73;8.35;;;;;;;;;;5058945;28;20031;-82
2022/01/20 05:43:52;;;;;;;19.75;8.40;;;;;;;;;;5051859;28;20076;-83
2022/01/20 05:46:23;;;;;;;24.10;10.75;;;;;;;;;;5063181;28;20037;-81
2022/01/20 05:48:49;;;;;;;30.15;10.52;;;;;;;;;;5047900;28;20072;-84
2022/01/20 05:51:15;;;;;;;28.52;10.50;;;;;;;;;;5051833;28;20051;-81
2022/01/20 05:53:41;;;;;;;27.63;10.40;;;;;;;;;;5057361;28;20071;-83
2022/01/20 05:56:07;;;;;;;33.35;10.88;;;;;;;;;;5062245;28;20041;-82
2022/01/20 05:58:37;;;;;;;33.42;11.23;;;;;;;;;;5061014;28;20063;-83
2022/01/20 06:01:06;;;;;;;23.85;10.77;;;;;;;;;;5048384;28;20055;-82
2022/01/20 06:03:39;;;;;;;23.92;10.50;;;;;;;;;;5068010;28;20041;-81
2022/01/20 06:06:05;;;;;;;;;;;;;;;;;;5051657;28;20130;-82
2022/01/20 06:08:31;;;;;;;22.63;5.80;;;;;;;;;;5064921;28;19912;-81
2022/01/20 06:10:57;;;;;;;27.52;6.25;;;;;;;;;;5065443;28;20044;-82
2022/01/20 06:13:23;;;;;;;21.13;5.68;;;;;;;;;;5062487;28;20040;-81
2022/01/20 06:15:49;;;;;;;18.63;5.22;;;;;;;;;;5042645;28;20045;-82
2022/01/20 06:18:16;;;;;;;23.20;5.72;;;;;;;;;;5044370;28;20354;-80
2022/01/20 06:20:42;;;;;;;18.60;5.47;;;;;;;;;;5048122;28;20368;-83
2022/01/20 06:23:08;;;;;;;15.38;4.35;;;;;;;;;;5049654;28;20511;-82
2022/01/20 06:25:34;;;;;;;21.05;4.07;;;;;;;;;;5050931;28;20453;-82
2022/01/20 06:28:00;;;;;;;19.13;4.00;;;;;;;;;;5044482;28;20088;-83
2022/01/20 06:30:26;;;;;;;19.85;4.45;;;;;;;;;;5048106;28;20064;-82
2022/01/20 06:32:52;;;;;;;25.90;4.70;;;;;;;;;;5069045;28;20459;-81
2022/01/20 06:35:18;;;;;;;22.48;4.57;;;;;;;;;;5067834;28;20041;-81
2022/01/20 06:37:44;;;;;;;26.02;4.55;;;;;;;;;;5075240;28;20060;-79
2022/01/20 06:40:11;;;;;;;20.92;4.25;;;;;;;;;;5049638;28;20040;-83
2022/01/20 06:42:37;;;;;;;26.38;4.63;;;;;;;;;;5050404;28;20049;-81
2022/01/20 06:45:06;;;;;;;22.08;4.57;;;;;;;;;;5046527;28;20041;-81
2022/01/20 06:47:32;;;;;;;29.33;4.40;;;;;;;;;;5061968;28;20415;-81
2022/01/20 06:49:59;;;;;;;19.38;3.78;;;;;;;;;;5062048;28;20388;-81
2022/01/20 06:52:25;;;;;;;25.33;4.88;;;;;;;;;;5049317;28;20040;-83
2022/01/20 06:54:51;;;;;;;26.27;4.57;;;;;;;;;;5046697;28;20067;-82
2022/01/20 06:57:17;;;;;;;21.67;4.18;;;;;;;;;;5045106;28;20464;-82
2022/01/20 06:59:43;;;;;;;25.42;4.10;;;;;;;;;;5062889;28;20086;-81
2022/01/20 07:02:09;;;;;;;22.23;4.80;;;;;;;;;;5064947;28;20061;-80
2022/01/20 07:04:37;;;;;;;18.08;4.22;;;;;;;;;;5061551;28;20029;-82
2022/01/20 07:07:03;;;;;;;18.02;3.80;;;;;;;;;;5062714;28;20037;-82
2022/01/20 07:09:29;;;;;;;24.98;3.75;;;;;;;;;;5045560;28;20060;-81
2022/01/20 07:11:55;;;;;;;21.67;3.55;;;;;;;;;;5066796;28;20037;-82
2022/01/20 07:14:21;;;;;;;22.02;3.45;;;;;;;;;;5050411;28;20040;-83
2022/01/20 07:16:48;;;;;;;24.90;3.75;;;;;;;;;;5067433;28;20043;-83
2022/01/20 07:19:14;;;;;;;23.15;3.30;;;;;;;;;;5045172;28;20048;-82
2022/01/20 07:21:40;;;;;;;20.70;3.33;;;;;;;;;;5044659;28;20102;-82
2022/01/20 07:24:07;;;;;;;24.65;3.85;;;;;;;;;;5045428;28;20037;-81
2022/01/20 07:26:33;;;;;;;18.17;3.60;;;;;;;;;;5049237;28;20073;-81
2022/01/20 07:28:59;;;;;;;19.92;3.50;;;;;;;;;;5068888;28;20041;-81
2022/01/20 07:31:25;;;;;;;21.38;3.20;;;;;;;;;;5068947;28;20044;-83
2022/01/20 07:33:52;;;;;;;21.95;3.00;;;;;;;;;;5052546;28;20047;-81
2022/01/20 07:36:19;;;;;;;19.67;3.58;;;;;;;;;;5054195;28;20051;-81
2022/01/20 07:38:45;;;;;;;26.05;3.63;;;;;;;;;;5051180;28;20037;-81
2022/01/20 07:41:11;;;;;;;18.50;3.25;;;;;;;;;;5047977;28;20051;-80
2022/01/20 07:43:37;;;;;;;28.65;3.58;;;;;;;;;;5070515;28;20064;-81
2022/01/20 07:46:03;;;;;;;24.15;3.58;;;;;;;;;;5054055;28;20033;-81
2022/01/20 07:48:29;;;;;;;27.50;4.00;;;;;;;;;;5054567;28;20065;-79
2022/01/20 07:50:55;;;;;;;21.45;3.80;;;;;;;;;;5070503;28;20060;-82
2022/01/20 07:53:21;;;;;;;21.77;3.10;;;;;;;;;;5052330;28;20048;-81
2022/01/20 07:55:47;;;;;;;26.38;3.75;;;;;;;;;;5068377;28;20065;-79
2022/01/20 07:58:13;;;;;;;24.10;3.97;;;;;;;;;;5068260;28;20063;-80
2022/01/20 08:00:39;;;;;;;25.75;4.00;;;;;;;;;;5067197;28;20068;-80
2022/01/20 08:03:05;;;;;;;21.05;3.55;;;;;;;;;;5051166;28;20065;-80
2022/01/20 08:05:31;;;;;;;24.33;3.83;;;;;;;;;;5071046;28;20032;-80
2022/01/20 08:07:57;;;;;;;27.60;3.72;;;;;;;;;;5055192;28;20056;-81
2022/01/20 08:10:23;;;;;;;27.27;3.42;;;;;;;;;;5070977;28;20041;-80
2022/01/20 08:12:49;;;;;;;30.75;3.60;;;;;;;;;;5070641;28;20065;-82
2022/01/20 08:15:16;;;;;;;32.40;3.95;;;;;;;;;;5065420;28;20041;-82
2022/01/20 08:17:42;;;;;;;28.73;4.05;;;;;;;;;;5068872;28;20048;-80
2022/01/20 08:20:09;;;;;;;17.50;3.30;;;;;;;;;;5049116;28;20112;-81
2022/01/20 08:22:36;;;;;;;23.20;3.30;;;;;;;;;;5048476;28;20151;-81
2022/01/20 08:25:06;;;;;;;21.60;3.22;;;;;;;;;;5066035;28;20083;-81
2022/01/20 08:27:32;;;;;;;19.30;3.08;;;;;;;;;;5050425;28;20372;-81
2022/01/20 08:29:58;;;;;;;22.85;3.60;;;;;;;;;;5070531;28;20037;-81
2022/01/20 08:32:24;;;;;;;23.15;3.00;;;;;;;;;;5069787;28;20052;-81
2022/01/20 08:34:50;;;;;;;21.30;3.40;;;;;;;;;;5067435;28;20170;-83
2022/01/20 08:37:16;;;;;;;20.65;3.33;;;;;;;;;;5067014;28;20041;-80
2022/01/20 08:39:45;;;;;;;16.67;3.05;;;;;;;;;;5069322;28;20075;-83
2022/01/20 08:42:11;;;;;;;25.95;2.95;;;;;;;;;;5049747;28;20056;-81
2022/01/20 08:44:37;;;;;;;15.50;3.22;;;;;;;;;;5049888;28;20377;-82
2022/01/20 08:47:04;;;;;;;24.25;3.47;;;;;;;;;;5065531;28;20437;-83
2022/01/20 08:49:30;;;;;;;22.15;3.40;;;;;;;;;;5048735;28;20047;-81
2022/01/20 08:51:56;;;;;;;24.55;3.65;;;;;;;;;;5048135;28;20079;-81
2022/01/20 08:54:23;;;;;;;22.63;3.95;;;;;;;;;;5067639;28;20051;-82
2022/01/20 08:56:50;;;;;;;18.45;3.50;;;;;;;;;;5067295;28;20072;-80
2022/01/20 08:59:16;;;;;;;23.73;3.92;;;;;;;;;;5050119;28;20037;-82
2022/01/20 09:01:43;;;;;;;29.42;3.70;;;;;;;;;;5065091;28;20140;-81
2022/01/20 09:04:09;;;;;;;17.77;2.97;;;;;;;;;;5052313;28;20033;-81
2022/01/20 09:06:35;;;;;;;20.85;3.13;;;;;;;;;;5066704;28;20048;-81
2022/01/20 09:09:01;;;;;;;23.55;3.00;;;;;;;;;;5049323;28;20041;-80
2022/01/20 09:11:35;;;;;;;20.83;3.13;;;;;;;;;;5050102;28;20041;-81
2022/01/20 09:16:45;;;;;;;18.92;3.08;;;;;;;;;;5069237;28;20517;-80
2022/01/20 09:19:12;;;;;;;19.55;3.20;;;;;;;;;;5047602;28;20040;-79
2022/01/20 09:21:39;;;;;;;22.52;3.38;;;;;;;;;;5048098;28;20064;-78
2022/01/20 09:24:05;;;;;;;12.38;2.85;;;;;;;;;;5048603;28;20065;-79
2022/01/20 09:26:31;;;;;;;21.50;3.05;;;;;;;;;;5064517;28;20364;-80
2022/01/20 09:28:57;;;;;;;17.48;3.10;;;;;;;;;;5047151;28;20089;-79
2022/01/20 09:31:25;;;;;;;22.98;2.97;;;;;;;;;;5065118;28;20045;-80
2022/01/20 09:33:51;;;;;;;17.50;3.00;;;;;;;;;;5066484;28;20174;-79
2022/01/20 09:36:19;;;;;;;23.58;3.40;;;;;;;;;;5049378;28;20036;-79
2022/01/20 09:38:45;;;;;;;19.83;3.20;;;;;;;;;;5048620;28;20051;-79
2022/01/20 09:41:11;;;;;;;15.88;2.97;;;;;;;;;;5066428;28;20096;-78
2022/01/20 09:43:37;;;;;;;19.60;3.40;;;;;;;;;;5048061;28;20068;-77
2022/01/20 09:46:03;;;;;;;19.67;3.58;;;;;;;;;;5050762;28;20094;-78
2022/01/20 09:48:29;;;;;;;22.13;3.83;;;;;;;;;;5066547;28;20032;-80
2022/01/20 09:50:55;;;;;;;17.75;3.42;;;;;;;;;;5070194;28;20064;-79
2022/01/20 09:53:22;;;;;;;19.33;3.15;;;;;;;;;;5069603;28;20311;-80
2022/01/20 09:55:48;;;;;;;21.77;3.33;;;;;;;;;;5061539;28;20045;-81
2022/01/20 09:58:14;;;;;;;22.45;3.33;;;;;;;;;;5062958;28;20449;-81
2022/01/20 10:00:41;;;;;;;17.13;3.00;;;;;;;;;;5043620;28;20041;-80
2022/01/20 10:03:12;;;;;;;12.73;2.30;;;;;;;;;;5060291;28;20116;-79
2022/01/20 10:05:41;;;;;;;14.93;3.00;;;;;;;;;;5059613;28;20098;-80
2022/01/20 10:08:13;;;;;;;25.88;3.47;;;;;;;;;;5060686;28;20076;-77
2022/01/20 10:10:40;;;;;;;17.13;3.47;;;;;;;;;;5058167;28;20049;-79
2022/01/20 10:13:06;;;;;;;19.73;2.90;;;;;;;;;;5064077;28;20057;-80
2022/01/20 10:15:32;;;;;;;14.07;2.83;;;;;;;;;;5055195;28;20025;-79
2022/01/20 10:18:05;;;;;;;16.42;2.63;;;;;;;;;;5057261;28;20044;-80
2022/01/20 10:20:31;;;;;;;15.70;2.92;;;;;;;;;;5063915;28;20122;-81
2022/01/20 10:22:57;;;;;;;21.58;2.58;;;;;;;;;;5045651;28;20049;-80
2022/01/20 10:25:24;;;;;;;23.15;3.40;;;;;;;;;;5063535;28;20047;-80
2022/01/20 10:27:50;;;;;;;12.30;2.70;;;;;;;;;;5046687;28;20068;-80
2022/01/20 10:30:16;;;;;;;23.92;3.35;;;;;;;;;;5063401;28;20437;-81
2022/01/20 10:32:46;;;;;;;19.00;3.08;;;;;;;;;;5061943;28;20460;-80
2022/01/20 10:35:13;;;;;;;17.80;3.03;;;;;;;;;;5050053;28;20452;-79
2022/01/20 10:37:40;;;;;;;18.25;3.22;;;;;;;;;;5065969;28;20067;-79
2022/01/20 10:40:15;;;;;;;24.48;3.35;;;;;;;;;;5046880;28;20124;-82
2022/01/20 10:42:46;;;;;;;18.13;3.40;;;;;;;;;;5044834;28;20100;-79
2022/01/20 10:45:38;;;;;;;20.50;3.30;;;;;;;;;;5060739;28;20059;-80
2022/01/20 10:48:04;;;;;;;15.10;2.90;;;;;;;;;;5058179;28;20052;-81
2022/01/20 10:50:31;;;;;;;21.60;3.40;;;;;;;;;;5065535;28;20047;-80
2022/01/20 10:52:57;;;;;;;19.50;3.03;;;;;;;;;;5061806;28;20048;-80
2022/01/20 10:55:26;;;;;;;16.85;2.92;;;;;;;;;;5060909;28;20047;-80
2022/01/20 10:57:53;;;;;;;20.45;3.40;;;;;;;;;;5065777;28;20109;-80
2022/01/20 11:00:19;;;;;;;19.58;3.28;;;;;;;;;;5045197;28;20095;-79
2022/01/20 11:02:53;;;;;;;20.23;2.83;;;;;;;;;;5041620;28;20041;-80
2022/01/20 11:05:19;;;;;;;;;;;;;;;;;;5065448;28;20037;-80
2022/01/20 11:07:51;;;;;;;19.10;3.20;;;;;;;;;;5067795;28;20257;-80
2022/01/20 11:10:19;;;;;;;17.45;2.70;;;;;;;;;;5066838;28;20068;-80
2022/01/20 11:12:45;;;;;;;13.55;2.72;;;;;;;;;;5062557;28;20115;-81
2022/01/20 11:15:15;;;;;;;21.33;3.22;;;;;;;;;;5058097;28;20120;-82
2022/01/20 11:17:42;;;;;;;17.95;3.28;;;;;;;;;;5060564;28;20041;-81
2022/01/20 11:20:09;;;;;;;15.05;2.92;;;;;;;;;;5048222;28;20037;-80
2022/01/20 11:22:36;;;;;;;17.95;3.13;;;;;;;;;;5049157;28;20040;-81
2022/01/20 11:25:03;;;;;;;18.27;3.20;;;;;;;;;;5064128;28;20043;-79
2022/01/20 11:27:43;;;;;;;19.42;3.17;;;;;;;;;;5044526;28;20072;-79
2022/01/20 11:30:21;;;;;;;24.25;3.20;;;;;;;;;;5041999;28;20432;-81
2022/01/20 11:33:00;;;;;;;22.55;3.70;;;;;;;;;;5045332;28;20056;-81
2022/01/20 11:35:56;;;;;;;17.40;3.20;;;;;;;;;;5046600;28;20051;-81
2022/01/20 11:38:23;;;;;;;14.25;2.80;;;;;;;;;;5051002;28;20099;-80
2022/01/20 11:40:49;;;;;;;16.65;3.65;;;;;;;;;;5041094;28;20033;-80
2022/01/20 11:43:15;;;;;;;19.70;4.00;;;;;;;;;;5061132;28;20056;-81
2022/01/20 11:45:45;;;;;;;18.98;3.25;;;;;;;;;;5058215;28;20076;-81
2022/01/20 11:48:31;;;;;;;22.77;3.95;;;;;;;;;;5058253;28;20114;-80
2022/01/20 11:51:04;;;;;;;18.58;3.65;;;;;;;;;;5058931;28;20037;-81
2022/01/20 11:53:30;;;;;;;19.05;3.30;;;;;;;;;;5052450;28;20044;-81
2022/01/20 11:55:56;;;;;;;23.15;3.58;;;;;;;;;;5042913;28;20044;-80
2022/01/20 11:58:23;;;;;;;14.32;2.85;;;;;;;;;;5039663;28;20048;-81
2022/01/20 12:01:05;;;;;;;19.15;3.35;;;;;;;;;;5058615;28;20044;-81
2022/01/20 12:03:31;;;;;;;25.27;3.40;;;;;;;;;;5057374;28;20065;-81
2022/01/20 12:05:58;;;;;;;15.48;3.25;;;;;;;;;;5055274;28;20040;-82
2022/01/20 12:08:24;;;;;;;18.52;2.97;;;;;;;;;;5075877;28;20045;-80
2022/01/20 12:10:57;;;;;;;25.33;3.80;;;;;;;;;;5075863;28;20044;-81
2022/01/20 12:13:23;;;;;;;;;;;;;;;;;;5052379;28;20041;-82
2022/01/20 12:15:50;;;;;;;18.67;3.13;;;;;;;;;;5077038;28;19992;-80
2022/01/20 12:18:16;;;;;;;15.85;3.35;;;;;;;;;;5075443;28;20043;-80
2022/01/20 12:20:42;;;;;;;17.45;3.20;;;;;;;;;;5051984;28;20497;-82
2022/01/20 12:23:08;;;;;;;15.23;3.17;;;;;;;;;;5078917;28;20083;-81
2022/01/20 12:25:35;;;;;;;26.20;3.85;;;;;;;;;;5060323;28;20093;-80
2022/01/20 12:28:05;;;;;;;16.92;2.95;;;;;;;;;;5057420;28;20055;-79
2022/01/20 12:30:31;;;;;;;20.77;2.95;;;;;;;;;;5077320;28;20017;-80
2022/01/20 12:33:03;;;;;;;21.38;3.53;;;;;;;;;;5063654;28;20032;-83
2022/01/20 12:35:37;;;;;;;17.75;2.65;;;;;;;;;;5080555;28;20036;-80
2022/01/20 12:38:13;;;;;;;17.83;3.60;;;;;;;;;;5064327;28;20049;-80
2022/01/20 12:40:39;;;;;;;20.10;3.33;;;;;;;;;;5063562;28;20048;-81
2022/01/20 12:43:05;;;;;;;16.30;3.67;;;;;;;;;;5061052;28;20037;-82
2022/01/20 12:48:17;;;;;;;22.02;3.42;;;;;;;;;;5065486;28;20445;-81
2022/01/20 12:50:52;;;;;;;17.08;3.40;;;;;;;;;;5072345;28;20520;-82
2022/01/20 12:53:18;;;;;;;17.52;2.67;;;;;;;;;;5075218;28;20021;-80
2022/01/20 12:55:53;;;;;;;19.10;3.42;;;;;;;;;;5074137;28;20040;-80
2022/01/20 12:58:19;;;;;;;20.35;3.08;;;;;;;;;;5057878;28;20047;-80
2022/01/20 13:00:56;;;;;;;20.95;3.22;;;;;;;;;;5077416;28;20032;-80
2022/01/20 13:03:23;;;;;;;18.10;3.05;;;;;;;;;;5062765;28;20131;-82
2022/01/20 13:05:52;;;;;;;18.13;3.10;;;;;;;;;;5063179;28;20025;-81
2022/01/20 13:08:21;;;;;;;14.88;3.30;;;;;;;;;;5063721;28;20059;-82
2022/01/20 13:10:47;;;;;;;21.48;3.63;;;;;;;;;;5059599;28;20029;-79
2022/01/20 13:13:17;;;;;;;16.13;3.50;;;;;;;;;;5068277;28;20045;-79
2022/01/20 13:15:46;;;;;;;15.95;3.30;;;;;;;;;;5067037;28;20036;-79
2022/01/20 13:18:13;;;;;;;20.27;3.25;;;;;;;;;;5059682;28;20043;-84
2022/01/20 13:20:42;;;;;;;12.65;2.78;;;;;;;;;;5065498;28;20037;-80
2022/01/20 13:23:54;;;;;;;14.07;2.60;;;;;;;;;;5046695;28;20041;-81
2022/01/20 13:26:06;;;;;;;13.32;2.63;;;;;;;;;;5062656;28;20108;-81
2022/01/20 13:28:32;;;;;;;16.98;3.15;;;;;;;;;;5062999;28;20040;-82
2022/01/20 13:30:58;;;;;;;18.20;3.05;;;;;;;;;;5051077;28;20051;-82
2022/01/20 13:33:25;;;;;;;18.13;2.95;;;;;;;;;;5061896;28;20069;-82
2022/01/20 13:35:56;;;;;;;15.80;3.28;;;;;;;;;;5062506;28;20075;-81
2022/01/20 13:38:30;;;;;;;23.05;3.35;;;;;;;;;;5074278;28;20025;-81
2022/01/20 13:41:06;;;;;;;14.75;3.10;;;;;;;;;;5076755;28;20450;-79
2022/01/20 13:46:30;;;;;;;17.83;2.90;;;;;;;;;;5033525;28;20049;-81
2022/01/20 13:49:06;;;;;;;12.35;2.97;;;;;;;;;;5073429;28;20044;-80
2022/01/20 13:51:32;;;;;;;15.32;2.72;;;;;;;;;;5060311;28;20036;-81
2022/01/20 13:53:58;;;;;;;22.15;3.65;;;;;;;;;;5047249;28;20037;-80
2022/01/20 13:56:24;;;;;;;14.45;3.60;;;;;;;;;;5060363;28;20067;-80
2022/01/20 13:58:50;;;;;;;21.45;3.38;;;;;;;;;;5060975;28;20045;-80
2022/01/20 14:01:16;;;;;;;16.48;3.00;;;;;;;;;;5049217;28;20447;-80
2022/01/20 14:03:42;;;;;;;14.10;3.17;;;;;;;;;;5048563;28;20040;-80
2022/01/20 14:06:08;;;;;;;17.83;3.25;;;;;;;;;;5048279;28;20040;-80
2022/01/20 14:08:36;;;;;;;15.35;3.03;;;;;;;;;;5043140;28;20041;-82
2022/01/20 14:11:02;;;;;;;17.73;2.60;;;;;;;;;;5061147;28;20367;-81
2022/01/20 14:13:28;;;;;;;15.20;1.98;;;;;;;;;;5060685;28;20037;-81
2022/01/20 14:15:55;;;;;;;10.00;1.75;;;;;;;;;;5042469;28;20037;-79
2022/01/20 14:18:23;;;;;;;14.98;3.05;;;;;;;;;;5063035;28;20445;-79
2022/01/20 14:20:53;;;;;;;17.23;3.13;;;;;;;;;;5047749;28;20062;-79
2022/01/20 14:23:19;;;;;;;17.17;3.22;;;;;;;;;;5060387;28;20025;-79
2022/01/20 14:25:46;;;;;;;12.50;3.00;;;;;;;;;;5043058;28;20062;-79
2022/01/20 14:28:12;;;;;;;14.60;3.42;;;;;;;;;;5061554;28;20041;-80
2022/01/20 14:30:38;;;;;;;14.05;2.65;;;;;;;;;;5043509;28;20037;-79
2022/01/20 14:33:06;;;;;;;11.93;2.90;;;;;;;;;;5060424;28;20059;-79
2022/01/20 14:35:32;;;;;;;19.63;3.30;;;;;;;;;;5062561;28;20075;-79
2022/01/20 14:37:58;;;;;;;9.50;3.00;;;;;;;;;;5045310;28;20346;-80
2022/01/20 14:40:24;;;;;;;17.23;3.88;;;;;;;;;;5062206;28;20392;-77
2022/01/20 14:42:51;;;;;;;10.77;3.05;;;;;;;;;;5045565;28;20053;-79
2022/01/20 14:45:18;;;;;;;13.18;3.03;;;;;;;;;;5047419;28;20063;-79
2022/01/20 14:47:45;;;;;;;8.25;2.65;;;;;;;;;;5045852;28;20037;-81
2022/01/20 14:50:11;;;;;;;9.85;2.55;;;;;;;;;;5060025;28;20036;-80
2022/01/20 14:52:37;;;;;;;9.77;2.60;;;;;;;;;;5060130;28;20040;-79
2022/01/20 14:55:04;;;;;;;12.65;2.50;;;;;;;;;;5073046;28;20089;-78
2022/01/20 14:57:30;;;;;;;11.35;3.33;;;;;;;;;;5058864;28;20036;-80
2022/01/20 14:59:56;;;;;;;13.70;2.60;;;;;;;;;;5069548;28;20040;-82
2022/01/20 15:02:22;;;;;;;14.93;2.50;;;;;;;;;;5052241;28;20045;-78
2022/01/20 15:04:49;;;;;;;11.23;2.40;;;;;;;;;;5051203;28;20037;-77
2022/01/20 15:07:15;;;;;;;12.00;2.53;;;;;;;;;;5069692;28;20083;-77
2022/01/20 15:09:41;;;;;;;8.15;2.08;;;;;;;;;;5051088;28;20063;-78
2022/01/20 15:12:08;;;;;;;10.68;2.53;;;;;;;;;;5067942;28;20114;-78
2022/01/20 15:14:35;;;;;;;8.48;2.40;;;;;;;;;;5062070;28;20045;-80
2022/01/20 15:17:01;;;;;;;13.18;2.80;;;;;;;;;;5057960;28;20094;-79
2022/01/20 15:19:27;;;;;;;8.85;2.38;;;;;;;;;;5058522;28;20033;-81
2022/01/20 15:21:53;;;;;;;13.30;2.42;;;;;;;;;;5041704;28;20100;-81
2022/01/20 15:24:19;;;;;;;15.10;2.90;;;;;;;;;;5042683;28;20075;-81
2022/01/20 15:26:45;;;;;;;11.52;2.70;;;;;;;;;;5060160;28;20037;-81
2022/01/20 15:29:11;;;;;;;12.60;3.10;;;;;;;;;;5042149;28;20055;-84
2022/01/20 15:31:37;;;;;;;11.90;2.58;;;;;;;;;;5057726;28;20037;-75
2022/01/20 15:34:12;;;;;;;12.80;3.27;;;;;;;;;;5052877;28;20064;-79
2022/01/20 15:36:38;;;;;;;13.00;2.97;;;;;;;;;;5047147;28;20045;-79
2022/01/20 15:39:05;;;;;;;15.20;2.80;;;;;;;;;;5046545;28;20037;-79
2022/01/20 15:41:31;;;;;;;18.67;3.47;;;;;;;;;;5047589;28;20132;-78
2022/01/20 15:43:57;;;;;;;20.95;3.40;;;;;;;;;;5042792;28;20056;-79
2022/01/20 15:46:23;;;;;;;20.98;3.70;;;;;;;;;;5060110;28;20105;-79
2022/01/20 15:48:49;;;;;;;15.23;3.70;;;;;;;;;;5044923;28;20032;-79